sensor_id;sensor_type;location;lat;lon;timestamp;pressure;altitude;pressure_sealevel;temperature;humidity
45467;BME280;31212;49.734;8.490;2023-02-08T00:01:35;102419.84;;;-3.45;74.50
45467;BME280;31212;49.734;8.490;2023-02-08T00:04:01;102416.31;;;-3.56;74.84
45467;BME280;31212;49.734;8.490;2023-02-08T00:06:29;102426.94;;;-3.60;74.83
45467;BME280;31212;49.734;8.490;2023-02-08T00:08:56;102429.34;;;-3.61;75.47
45467;BME280;31212;49.734;8.490;2023-02-08T00:11:23;102453.25;;;-3.68;75.24
45467;BME280;31212;49.734;8.490;2023-02-08T00:13:50;102445.91;;;-3.65;75.24
45467;BME280;31212;49.734;8.490;2023-02-08T00:16:17;102450.84;;;-3.66;75.35
45467;BME280;31212;49.734;8.490;2023-02-08T00:18:43;102448.66;;;-3.72;75.67
45467;BME280;31212;49.734;8.490;2023-02-08T00:21:11;102453.00;;;-3.80;75.85
45467;BME280;31212;49.734;8.490;2023-02-08T00:23:40;102463.88;;;-3.81;76.25
45467;BME280;31212;49.734;8.490;2023-02-08T00:26:06;102460.31;;;-3.83;76.45
45467;BME280;31212;49.734;8.490;2023-02-08T00:28:33;102469.28;;;-3.78;75.71
45467;BME280;31212;49.734;8.490;2023-02-08T00:31:00;102468.25;;;-3.89;76.46
45467;BME280;31212;49.734;8.490;2023-02-08T00:33:26;102482.00;;;-3.95;76.87
45467;BME280;31212;49.734;8.490;2023-02-08T00:35:57;102491.09;;;-3.97;76.31
45467;BME280;31212;49.734;8.490;2023-02-08T00:38:24;102499.16;;;-3.93;76.50
45467;BME280;31212;49.734;8.490;2023-02-08T00:40:52;102501.84;;;-4.00;76.92
45467;BME280;31212;49.734;8.490;2023-02-08T00:43:18;102506.47;;;-3.96;77.11
45467;BME280;31212;49.734;8.490;2023-02-08T00:45:45;102503.81;;;-4.06;77.09
45467;BME280;31212;49.734;8.490;2023-02-08T00:48:11;102511.41;;;-4.15;77.54
45467;BME280;31212;49.734;8.490;2023-02-08T00:50:38;102520.81;;;-4.14;77.50
45467;BME280;31212;49.734;8.490;2023-02-08T00:53:04;102522.16;;;-4.17;77.62
45467;BME280;31212;49.734;8.490;2023-02-08T00:55:31;102531.72;;;-4.24;78.29
45467;BME280;31212;49.734;8.490;2023-02-08T00:57:59;102539.00;;;-4.27;78.20
45467;BME280;31212;49.734;8.490;2023-02-08T01:00:25;102548.41;;;-4.26;78.27
45467;BME280;31212;49.734;8.490;2023-02-08T01:02:52;102555.28;;;-4.25;78.75
45467;BME280;31212;49.734;8.490;2023-02-08T01:05:18;102561.56;;;-4.21;78.51
45467;BME280;31212;49.734;8.490;2023-02-08T01:07:45;102562.75;;;-4.17;78.79
45467;BME280;31212;49.734;8.490;2023-02-08T01:10:11;102547.97;;;-4.22;78.96
45467;BME280;31212;49.734;8.490;2023-02-08T01:12:39;102557.22;;;-4.22;78.78
45467;BME280;31212;49.734;8.490;2023-02-08T01:15:08;102550.06;;;-4.26;78.92
45467;BME280;31212;49.734;8.490;2023-02-08T01:17:34;102553.06;;;-4.30;79.50
45467;BME280;31212;49.734;8.490;2023-02-08T01:20:01;102556.47;;;-4.30;79.77
45467;BME280;31212;49.734;8.490;2023-02-08T01:22:28;102561.41;;;-4.31;79.32
45467;BME280;31212;49.734;8.490;2023-02-08T01:24:55;102556.91;;;-4.34;79.17
45467;BME280;31212;49.734;8.490;2023-02-08T01:27:21;102545.91;;;-4.34;79.08
45467;BME280;31212;49.734;8.490;2023-02-08T01:29:48;102545.00;;;-4.44;79.52
45467;BME280;31212;49.734;8.490;2023-02-08T01:32:16;102550.50;;;-4.48;79.58
45467;BME280;31212;49.734;8.490;2023-02-08T01:34:42;102551.97;;;-4.50;79.43
45467;BME280;31212;49.734;8.490;2023-02-08T01:37:09;102558.56;;;-4.52;79.87
45467;BME280;31212;49.734;8.490;2023-02-08T01:39:36;102565.38;;;-4.60;80.26
45467;BME280;31212;49.734;8.490;2023-02-08T01:42:02;102572.13;;;-4.60;80.15
45467;BME280;31212;49.734;8.490;2023-02-08T01:47:35;102569.25;;;-4.63;80.44
45467;BME280;31212;49.734;8.490;2023-02-08T01:50:01;102551.50;;;-4.63;80.56
45467;BME280;31212;49.734;8.490;2023-02-08T01:52:28;102562.13;;;-4.59;80.61
45467;BME280;31212;49.734;8.490;2023-02-08T01:54:58;102562.56;;;-4.54;80.31
45467;BME280;31212;49.734;8.490;2023-02-08T01:57:26;102557.63;;;-4.52;80.69
45467;BME280;31212;49.734;8.490;2023-02-08T01:59:57;102548.41;;;-4.52;80.44
45467;BME280;31212;49.734;8.490;2023-02-08T02:02:26;102541.06;;;-4.58;80.15
45467;BME280;31212;49.734;8.490;2023-02-08T02:04:54;102534.84;;;-4.61;80.55
45467;BME280;31212;49.734;8.490;2023-02-08T02:07:25;102535.88;;;-4.68;80.50
45467;BME280;31212;49.734;8.490;2023-02-08T02:09:55;102544.06;;;-4.70;80.70
45467;BME280;31212;49.734;8.490;2023-02-08T02:12:25;102543.16;;;-4.71;80.67
45467;BME280;31212;49.734;8.490;2023-02-08T02:14:52;102538.94;;;-4.79;80.78
45467;BME280;31212;49.734;8.490;2023-02-08T02:17:19;102544.03;;;-4.79;80.90
45467;BME280;31212;49.734;8.490;2023-02-08T02:19:51;102547.00;;;-4.83;81.20
45467;BME280;31212;49.734;8.490;2023-02-08T02:22:55;102551.47;;;-4.90;81.43
45467;BME280;31212;49.734;8.490;2023-02-08T02:25:51;102553.66;;;-4.93;81.31
45467;BME280;31212;49.734;8.490;2023-02-08T02:28:49;102548.78;;;-4.91;81.41
45467;BME280;31212;49.734;8.490;2023-02-08T02:31:51;102558.47;;;-4.87;81.47
45467;BME280;31212;49.734;8.490;2023-02-08T02:34:25;102560.09;;;-4.87;81.35
45467;BME280;31212;49.734;8.490;2023-02-08T02:37:01;102561.91;;;-4.86;81.41
45467;BME280;31212;49.734;8.490;2023-02-08T02:39:34;102564.56;;;-4.85;81.52
45467;BME280;31212;49.734;8.490;2023-02-08T02:42:06;102556.81;;;-4.86;81.46
45467;BME280;31212;49.734;8.490;2023-02-08T02:45:01;102549.09;;;-4.88;81.69
45467;BME280;31212;49.734;8.490;2023-02-08T02:47:37;102550.13;;;-4.86;81.43
45467;BME280;31212;49.734;8.490;2023-02-08T02:50:11;102543.88;;;-4.90;81.31
45467;BME280;31212;49.734;8.490;2023-02-08T02:52:44;102543.00;;;-4.81;81.57
45467;BME280;31212;49.734;8.490;2023-02-08T02:55:15;102526.44;;;-4.86;81.23
45467;BME280;31212;49.734;8.490;2023-02-08T02:57:45;102529.25;;;-4.83;81.68
45467;BME280;31212;49.734;8.490;2023-02-08T03:00:19;102526.88;;;-4.82;81.45
45467;BME280;31212;49.734;8.490;2023-02-08T03:02:49;102525.41;;;-4.88;81.53
45467;BME280;31212;49.734;8.490;2023-02-08T03:05:15;102536.41;;;-4.88;81.60
45467;BME280;31212;49.734;8.490;2023-02-08T03:07:56;102539.09;;;-4.86;81.77
45467;BME280;31212;49.734;8.490;2023-02-08T03:10:43;102537.72;;;-4.92;81.84
45467;BME280;31212;49.734;8.490;2023-02-08T03:13:23;102530.13;;;-4.92;82.01
45467;BME280;31212;49.734;8.490;2023-02-08T03:15:59;102534.03;;;-4.86;81.85
45467;BME280;31212;49.734;8.490;2023-02-08T03:18:34;102518.38;;;-4.91;81.46
45467;BME280;31212;49.734;8.490;2023-02-08T03:21:08;102534.31;;;-4.83;82.13
45467;BME280;31212;49.734;8.490;2023-02-08T03:23:39;102524.97;;;-4.84;81.47
45467;BME280;31212;49.734;8.490;2023-02-08T03:26:10;102520.63;;;-4.85;82.00
45467;BME280;31212;49.734;8.490;2023-02-08T03:28:47;102521.81;;;-4.82;81.57
45467;BME280;31212;49.734;8.490;2023-02-08T03:31:20;102513.75;;;-4.86;81.42
45467;BME280;31212;49.734;8.490;2023-02-08T03:33:53;102515.84;;;-4.82;81.53
45467;BME280;31212;49.734;8.490;2023-02-08T03:36:25;102513.91;;;-4.85;81.91
45467;BME280;31212;49.734;8.490;2023-02-08T03:38:59;102512.09;;;-4.86;81.29
45467;BME280;31212;49.734;8.490;2023-02-08T03:41:29;102504.06;;;-4.91;81.41
45467;BME280;31212;49.734;8.490;2023-02-08T03:43:59;102513.03;;;-4.85;81.43
45467;BME280;31212;49.734;8.490;2023-02-08T03:46:31;102496.16;;;-4.94;81.32
45467;BME280;31212;49.734;8.490;2023-02-08T03:49:03;102499.16;;;-4.89;81.23
45467;BME280;31212;49.734;8.490;2023-02-08T03:51:31;102501.69;;;-4.89;81.54
45467;BME280;31212;49.734;8.490;2023-02-08T03:54:02;102505.13;;;-4.88;81.06
45467;BME280;31212;49.734;8.490;2023-02-08T03:56:37;102510.50;;;-4.85;81.48
45467;BME280;31212;49.734;8.490;2023-02-08T03:59:08;102522.88;;;-4.88;81.33
45467;BME280;31212;49.734;8.490;2023-02-08T04:01:40;102519.13;;;-4.83;81.15
45467;BME280;31212;49.734;8.490;2023-02-08T04:04:11;102511.53;;;-4.83;81.03
45467;BME280;31212;49.734;8.490;2023-02-08T04:06:39;102504.50;;;-4.86;81.27
45467;BME280;31212;49.734;8.490;2023-02-08T04:09:05;102503.19;;;-4.82;81.03
45467;BME280;31212;49.734;8.490;2023-02-08T04:11:32;102504.25;;;-4.80;80.98
45467;BME280;31212;49.734;8.490;2023-02-08T04:13:58;102499.63;;;-4.84;81.44
45467;BME280;31212;49.734;8.490;2023-02-08T04:16:25;102489.63;;;-4.83;81.11
45467;BME280;31212;49.734;8.490;2023-02-08T04:18:51;102486.97;;;-4.84;81.12
45467;BME280;31212;49.734;8.490;2023-02-08T04:21:19;102479.78;;;-4.88;81.04
45467;BME280;31212;49.734;8.490;2023-02-08T04:23:46;102479.34;;;-4.84;81.36
45467;BME280;31212;49.734;8.490;2023-02-08T04:26:13;102464.28;;;-4.83;81.00
45467;BME280;31212;49.734;8.490;2023-02-08T04:28:39;102469.94;;;-4.85;81.03
45467;BME280;31212;49.734;8.490;2023-02-08T04:31:06;102470.41;;;-4.90;81.22
45467;BME280;31212;49.734;8.490;2023-02-08T04:33:32;102462.81;;;-4.90;80.68
45467;BME280;31212;49.734;8.490;2023-02-08T04:35:59;102461.44;;;-4.86;81.43
45467;BME280;31212;49.734;8.490;2023-02-08T04:38:27;102461.19;;;-4.80;81.14
45467;BME280;31212;49.734;8.490;2023-02-08T04:40:53;102458.31;;;-4.83;80.69
45467;BME280;31212;49.734;8.490;2023-02-08T04:43:20;102448.63;;;-4.87;80.76
45467;BME280;31212;49.734;8.490;2023-02-08T04:45:48;102456.22;;;-4.87;80.90
45467;BME280;31212;49.734;8.490;2023-02-08T04:48:15;102458.19;;;-4.76;81.00
45467;BME280;31212;49.734;8.490;2023-02-08T04:50:42;102453.25;;;-4.83;81.06
45467;BME280;31212;49.734;8.490;2023-02-08T04:53:08;102452.22;;;-4.85;80.91
45467;BME280;31212;49.734;8.490;2023-02-08T04:55:36;102452.81;;;-4.88;81.00
45467;BME280;31212;49.734;8.490;2023-02-08T04:58:03;102451.00;;;-4.89;80.76
45467;BME280;31212;49.734;8.490;2023-02-08T05:00:30;102454.47;;;-4.88;81.12
45467;BME280;31212;49.734;8.490;2023-02-08T05:02:57;102460.25;;;-4.90;81.20
45467;BME280;31212;49.734;8.490;2023-02-08T05:05:24;102465.47;;;-4.88;81.21
45467;BME280;31212;49.734;8.490;2023-02-08T05:07:51;102468.59;;;-4.91;81.46
45467;BME280;31212;49.734;8.490;2023-02-08T05:10:18;102476.97;;;-4.83;81.11
45467;BME280;31212;49.734;8.490;2023-02-08T05:12:46;102472.63;;;-4.84;80.94
45467;BME280;31212;49.734;8.490;2023-02-08T05:15:12;102472.50;;;-4.85;80.67
45467;BME280;31212;49.734;8.490;2023-02-08T05:17:39;102471.44;;;-4.87;81.43
45467;BME280;31212;49.734;8.490;2023-02-08T05:20:06;102463.34;;;-5.01;80.91
45467;BME280;31212;49.734;8.490;2023-02-08T05:22:33;102472.47;;;-5.03;81.29
45467;BME280;31212;49.734;8.490;2023-02-08T05:25:00;102467.97;;;-5.05;81.53
45467;BME280;31212;49.734;8.490;2023-02-08T05:27:27;102469.63;;;-5.06;81.24
45467;BME280;31212;49.734;8.490;2023-02-08T05:29:55;102468.88;;;-5.05;81.37
45467;BME280;31212;49.734;8.490;2023-02-08T05:32:21;102475.13;;;-5.01;81.02
45467;BME280;31212;49.734;8.490;2023-02-08T05:34:48;102477.22;;;-5.06;81.27
45467;BME280;31212;49.734;8.490;2023-02-08T05:37:14;102475.00;;;-5.03;81.37
45467;BME280;31212;49.734;8.490;2023-02-08T05:39:41;102459.06;;;-4.76;80.90
45467;BME280;31212;49.734;8.490;2023-02-08T05:42:07;102431.66;;;-4.71;80.56
45467;BME280;31212;49.734;8.490;2023-02-08T05:44:34;102414.97;;;-4.69;80.12
45467;BME280;31212;49.734;8.490;2023-02-08T05:47:02;102403.63;;;-4.73;79.88
45467;BME280;31212;49.734;8.490;2023-02-08T05:49:29;102405.13;;;-4.83;80.14
45467;BME280;31212;49.734;8.490;2023-02-08T05:51:55;102413.16;;;-4.87;80.14
45467;BME280;31212;49.734;8.490;2023-02-08T05:54:22;102427.94;;;-4.75;80.03
45467;BME280;31212;49.734;8.490;2023-02-08T05:56:48;102408.09;;;-4.70;79.68
45467;BME280;31212;49.734;8.490;2023-02-08T05:59:15;102393.78;;;-4.61;79.52
45467;BME280;31212;49.734;8.490;2023-02-08T06:01:41;102383.34;;;-4.55;78.91
45467;BME280;31212;49.734;8.490;2023-02-08T06:04:09;102376.50;;;-4.56;78.64
45467;BME280;31212;49.734;8.490;2023-02-08T06:06:35;102366.66;;;-4.53;78.80
45467;BME280;31212;49.734;8.490;2023-02-08T06:09:02;102363.50;;;-4.59;78.34
45467;BME280;31212;49.734;8.490;2023-02-08T06:11:29;102366.06;;;-4.68;78.51
45467;BME280;31212;49.734;8.490;2023-02-08T06:13:55;102377.13;;;-4.76;79.06
45467;BME280;31212;49.734;8.490;2023-02-08T06:16:22;102381.25;;;-4.77;79.03
45467;BME280;31212;49.734;8.490;2023-02-08T06:18:49;102384.69;;;-4.85;79.45
45467;BME280;31212;49.734;8.490;2023-02-08T06:21:17;102394.84;;;-4.94;79.54
45467;BME280;31212;49.734;8.490;2023-02-08T06:23:43;102401.97;;;-4.98;79.73
45467;BME280;31212;49.734;8.490;2023-02-08T06:26:10;102420.88;;;-5.03;79.54
45467;BME280;31212;49.734;8.490;2023-02-08T06:28:36;102428.34;;;-5.05;80.01
45467;BME280;31212;49.734;8.490;2023-02-08T06:31:03;102440.84;;;-5.15;80.14
45467;BME280;31212;49.734;8.490;2023-02-08T06:33:30;102449.34;;;-5.15;80.27
45467;BME280;31212;49.734;8.490;2023-02-08T06:35:56;102469.75;;;-5.13;80.77
45467;BME280;31212;49.734;8.490;2023-02-08T06:38:24;102476.31;;;-5.15;81.12
45467;BME280;31212;49.734;8.490;2023-02-08T06:40:51;102478.94;;;-5.22;80.77
45467;BME280;31212;49.734;8.490;2023-02-08T06:43:17;102478.94;;;-5.22;80.69
45467;BME280;31212;49.734;8.490;2023-02-08T06:45:46;102496.22;;;-5.18;80.79
45467;BME280;31212;49.734;8.490;2023-02-08T06:48:13;102488.78;;;-5.26;80.74
45467;BME280;31212;49.734;8.490;2023-02-08T06:50:40;102495.94;;;-5.21;80.87
45467;BME280;31212;49.734;8.490;2023-02-08T06:53:06;102496.81;;;-5.21;80.97
45467;BME280;31212;49.734;8.490;2023-02-08T06:55:34;102501.88;;;-5.21;81.17
45467;BME280;31212;49.734;8.490;2023-02-08T06:58:00;102509.81;;;-5.18;81.18
45467;BME280;31212;49.734;8.490;2023-02-08T07:00:27;102511.00;;;-5.14;81.00
45467;BME280;31212;49.734;8.490;2023-02-08T07:02:53;102509.09;;;-5.08;81.14
45467;BME280;31212;49.734;8.490;2023-02-08T07:05:20;102498.81;;;-5.01;80.88
45467;BME280;31212;49.734;8.490;2023-02-08T07:07:47;102491.22;;;-5.01;81.09
45467;BME280;31212;49.734;8.490;2023-02-08T07:10:13;102492.56;;;-4.96;80.53
45467;BME280;31212;49.734;8.490;2023-02-08T07:12:41;102487.97;;;-4.91;80.48
45467;BME280;31212;49.734;8.490;2023-02-08T07:15:08;102481.88;;;-4.84;80.52
45467;BME280;31212;49.734;8.490;2023-02-08T07:17:37;102470.88;;;-4.76;80.49
45467;BME280;31212;49.734;8.490;2023-02-08T07:20:04;102462.78;;;-4.81;79.68
45467;BME280;31212;49.734;8.490;2023-02-08T07:22:31;102451.63;;;-4.83;80.02
45467;BME280;31212;49.734;8.490;2023-02-08T07:24:58;102444.31;;;-4.80;79.91
45467;BME280;31212;49.734;8.490;2023-02-08T07:27:24;102437.47;;;-4.72;79.64
45467;BME280;31212;49.734;8.490;2023-02-08T07:29:52;102427.03;;;-4.66;79.45
45467;BME280;31212;49.734;8.490;2023-02-08T07:32:18;102419.56;;;-4.65;80.02
45467;BME280;31212;49.734;8.490;2023-02-08T07:34:45;102414.97;;;-4.60;79.30
45467;BME280;31212;49.734;8.490;2023-02-08T07:37:11;102414.66;;;-4.54;79.08
45467;BME280;31212;49.734;8.490;2023-02-08T07:39:38;102416.44;;;-4.53;79.29
45467;BME280;31212;49.734;8.490;2023-02-08T07:42:06;102414.03;;;-4.43;79.42
45467;BME280;31212;49.734;8.490;2023-02-08T07:44:40;102414.03;;;-4.34;78.71
45467;BME280;31212;49.734;8.490;2023-02-08T07:47:08;102408.81;;;-4.27;78.69
45467;BME280;31212;49.734;8.490;2023-02-08T07:49:35;102407.88;;;-4.19;78.22
45467;BME280;31212;49.734;8.490;2023-02-08T07:52:03;102388.94;;;-4.14;77.99
45467;BME280;31212;49.734;8.490;2023-02-08T07:54:29;102372.19;;;-4.03;78.01
45467;BME280;31212;49.734;8.490;2023-02-08T07:56:56;102363.78;;;-3.93;78.10
45467;BME280;31212;49.734;8.490;2023-02-08T07:59:23;102358.22;;;-3.80;77.89
45467;BME280;31212;49.734;8.490;2023-02-08T08:01:49;102351.28;;;-3.73;77.46
45467;BME280;31212;49.734;8.490;2023-02-08T08:04:17;102335.75;;;-3.67;77.71
45467;BME280;31212;49.734;8.490;2023-02-08T08:06:46;102346.28;;;-3.53;77.70
45467;BME280;31212;49.734;8.490;2023-02-08T08:09:17;102336.78;;;-3.46;77.30
45467;BME280;31212;49.734;8.490;2023-02-08T08:11:44;102335.53;;;-3.32;76.45
45467;BME280;31212;49.734;8.490;2023-02-08T08:14:11;102325.56;;;-3.20;77.01
45467;BME280;31212;49.734;8.490;2023-02-08T08:16:37;102305.44;;;-3.08;76.19
45467;BME280;31212;49.734;8.490;2023-02-08T08:19:04;102303.66;;;-2.90;75.59
45467;BME280;31212;49.734;8.490;2023-02-08T08:21:32;102281.56;;;-2.81;75.39
45467;BME280;31212;49.734;8.490;2023-02-08T08:24:01;102265.38;;;-2.62;75.68
45467;BME280;31212;49.734;8.490;2023-02-08T08:26:27;102257.44;;;-2.36;75.51
45467;BME280;31212;49.734;8.490;2023-02-08T08:28:54;102246.25;;;-0.92;73.44
45467;BME280;31212;49.734;8.490;2023-02-08T08:31:22;102086.19;;;0.31;69.86
45467;BME280;31212;49.734;8.490;2023-02-08T08:33:49;101892.56;;;1.83;65.71
45467;BME280;31212;49.734;8.490;2023-02-08T08:36:15;101672.47;;;3.90;60.67
45467;BME280;31212;49.734;8.490;2023-02-08T08:38:43;101485.16;;;4.50;57.25
45467;BME280;31212;49.734;8.490;2023-02-08T08:41:11;101378.03;;;5.77;54.32
45467;BME280;31212;49.734;8.490;2023-02-08T08:43:39;101235.19;;;6.17;51.27
45467;BME280;31212;49.734;8.490;2023-02-08T08:46:06;101109.88;;;6.50;49.03
45467;BME280;31212;49.734;8.490;2023-02-08T08:48:33;101152.94;;;7.09;48.34
45467;BME280;31212;49.734;8.490;2023-02-08T08:51:00;101091.31;;;8.23;46.97
45467;BME280;31212;49.734;8.490;2023-02-08T08:53:27;100957.19;;;8.40;44.84
45467;BME280;31212;49.734;8.490;2023-02-08T08:55:55;100879.97;;;8.60;43.35
45467;BME280;31212;49.734;8.490;2023-02-08T08:58:21;100860.88;;;8.11;43.67
45467;BME280;31212;49.734;8.490;2023-02-08T09:00:48;100809.16;;;9.07;42.01
45467;BME280;31212;49.734;8.490;2023-02-08T09:03:15;100736.25;;;8.32;41.51
45467;BME280;31212;49.734;8.490;2023-02-08T09:05:41;100813.22;;;9.48;40.94
45467;BME280;31212;49.734;8.490;2023-02-08T09:08:08;100756.81;;;9.31;39.92
45467;BME280;31212;49.734;8.490;2023-02-08T09:10:34;100742.41;;;8.90;39.99
45467;BME280;31212;49.734;8.490;2023-02-08T09:13:02;100884.25;;;9.07;40.81
45467;BME280;31212;49.734;8.490;2023-02-08T09:15:29;100815.47;;;8.72;40.30
45467;BME280;31212;49.734;8.490;2023-02-08T09:17:56;100743.09;;;8.30;39.68
45467;BME280;31212;49.734;8.490;2023-02-08T09:20:22;100897.66;;;8.40;41.07
45467;BME280;31212;49.734;8.490;2023-02-08T09:22:49;100789.53;;;9.90;38.44
45467;BME280;31212;49.734;8.490;2023-02-08T09:25:18;100648.13;;;9.42;37.23
45467;BME280;31212;49.734;8.490;2023-02-08T09:27:44;100662.94;;;8.31;38.68
45467;BME280;31212;49.734;8.490;2023-02-08T09:30:12;100824.13;;;9.28;39.06
45467;BME280;31212;49.734;8.490;2023-02-08T09:32:39;100728.94;;;9.13;38.21
45467;BME280;31212;49.734;8.490;2023-02-08T09:35:06;100813.13;;;9.43;38.64
45467;BME280;31212;49.734;8.490;2023-02-08T09:37:33;100699.28;;;9.57;37.72
45467;BME280;31212;49.734;8.490;2023-02-08T09:40:00;100674.97;;;10.33;36.44
45467;BME280;31212;49.734;8.490;2023-02-08T09:42:33;100683.09;;;10.72;35.79
45467;BME280;31212;49.734;8.490;2023-02-08T09:48:03;100436.13;;;7.14;37.78
45467;BME280;31212;49.734;8.490;2023-02-08T09:50:32;100653.25;;;5.80;40.44
45467;BME280;31212;49.734;8.490;2023-02-08T09:53:04;100733.41;;;4.74;42.52
45467;BME280;31212;49.734;8.490;2023-02-08T09:55:35;100901.38;;;4.00;44.99
45467;BME280;31212;49.734;8.490;2023-02-08T09:58:05;100927.63;;;3.70;45.05
45467;BME280;31212;49.734;8.490;2023-02-08T10:00:35;100977.16;;;3.46;46.06
45467;BME280;31212;49.734;8.490;2023-02-08T10:03:07;101085.53;;;3.39;46.71
45467;BME280;31212;49.734;8.490;2023-02-08T10:05:47;101083.03;;;2.64;47.00
45467;BME280;31212;49.734;8.490;2023-02-08T10:08:14;101195.38;;;2.73;48.07
45467;BME280;31212;49.734;8.490;2023-02-08T10:10:49;101211.38;;;2.67;48.88
45467;BME280;31212;49.734;8.490;2023-02-08T10:13:31;101185.88;;;2.52;48.39
45467;BME280;31212;49.734;8.490;2023-02-08T10:16:12;101246.13;;;2.44;49.27
45467;BME280;31212;49.734;8.490;2023-02-08T10:18:45;101249.56;;;2.44;48.59
45467;BME280;31212;49.734;8.490;2023-02-08T10:21:29;101307.41;;;2.39;49.37
45467;BME280;31212;49.734;8.490;2023-02-08T10:24:14;101361.72;;;3.17;49.18
45467;BME280;31212;49.734;8.490;2023-02-08T10:26:45;101277.19;;;3.78;47.13
45467;BME280;31212;49.734;8.490;2023-02-08T10:32:30;101174.03;;;5.65;44.29
45467;BME280;31212;49.734;8.490;2023-02-08T10:35:04;101099.97;;;6.93;41.58
45467;BME280;31212;49.734;8.490;2023-02-08T10:37:33;101027.38;;;8.17;39.68
45467;BME280;31212;49.734;8.490;2023-02-08T10:40:11;100830.47;;;8.00;38.52
45467;BME280;31212;49.734;8.490;2023-02-08T10:42:42;100781.50;;;9.06;37.50
45467;BME280;31212;49.734;8.490;2023-02-08T10:45:18;100697.81;;;9.79;35.80
45467;BME280;31212;49.734;8.490;2023-02-08T10:47:50;100635.22;;;9.43;35.63
45467;BME280;31212;49.734;8.490;2023-02-08T10:50:24;100560.09;;;9.48;34.76
45467;BME280;31212;49.734;8.490;2023-02-08T10:52:54;100587.88;;;10.69;34.09
45467;BME280;31212;49.734;8.490;2023-02-08T10:55:21;100429.53;;;10.96;31.99
45467;BME280;31212;49.734;8.490;2023-02-08T10:57:49;100510.63;;;9.22;34.74
45467;BME280;31212;49.734;8.490;2023-02-08T11:00:19;100314.22;;;10.12;32.08
45467;BME280;31212;49.734;8.490;2023-02-08T11:02:46;100470.81;;;10.31;33.34
45467;BME280;31212;49.734;8.490;2023-02-08T11:05:19;100404.41;;;11.86;30.74
45467;BME280;31212;49.734;8.490;2023-02-08T11:08:04;100449.53;;;11.57;31.28
45467;BME280;31212;49.734;8.490;2023-02-08T11:10:30;100355.91;;;11.57;31.24
45467;BME280;31212;49.734;8.490;2023-02-08T11:12:58;100164.59;;;10.00;31.21
45467;BME280;31212;49.734;8.490;2023-02-08T11:15:28;100308.00;;;9.71;32.47
45467;BME280;31212;49.734;8.490;2023-02-08T11:17:58;100366.66;;;9.56;33.21
45467;BME280;31212;49.734;8.490;2023-02-08T11:20:30;100454.72;;;8.63;34.13
45467;BME280;31212;49.734;8.490;2023-02-08T11:22:59;100432.16;;;7.89;35.13
45467;BME280;31212;49.734;8.490;2023-02-08T11:25:32;100520.41;;;8.11;35.27
45467;BME280;31212;49.734;8.490;2023-02-08T11:27:59;100534.53;;;8.35;35.21
45467;BME280;31212;49.734;8.490;2023-02-08T11:30:26;100391.88;;;6.92;35.36
45467;BME280;31212;49.734;8.490;2023-02-08T11:33:18;100508.16;;;6.55;36.55
45467;BME280;31212;49.734;8.490;2023-02-08T11:35:55;100578.25;;;6.37;37.41
45467;BME280;31212;49.734;8.490;2023-02-08T11:38:25;100653.31;;;6.13;38.10
45467;BME280;31212;49.734;8.490;2023-02-08T11:40:57;100688.31;;;6.38;38.49
45467;BME280;31212;49.734;8.490;2023-02-08T11:43:26;100750.97;;;6.69;38.64
45467;BME280;31212;49.734;8.490;2023-02-08T11:45:54;100680.63;;;6.42;38.12
45467;BME280;31212;49.734;8.490;2023-02-08T11:48:25;100769.81;;;6.67;38.72
45467;BME280;31212;49.734;8.490;2023-02-08T11:50:56;100862.34;;;6.86;39.75
45467;BME280;31212;49.734;8.490;2023-02-08T11:53:28;100787.94;;;7.05;38.45
45467;BME280;31212;49.734;8.490;2023-02-08T11:56:05;100685.50;;;6.29;38.28
45467;BME280;31212;49.734;8.490;2023-02-08T11:58:32;100763.19;;;6.43;39.06
45467;BME280;31212;49.734;8.490;2023-02-08T12:01:00;100748.78;;;6.18;39.30
45467;BME280;31212;49.734;8.490;2023-02-08T12:03:29;100767.25;;;6.01;39.28
45467;BME280;31212;49.734;8.490;2023-02-08T12:06:08;100814.72;;;6.10;39.54
45467;BME280;31212;49.734;8.490;2023-02-08T12:08:47;100903.41;;;6.45;40.16
45467;BME280;31212;49.734;8.490;2023-02-08T12:11:22;100851.22;;;6.89;38.91
45467;BME280;31212;49.734;8.490;2023-02-08T12:13:59;100837.44;;;6.88;39.57
45467;BME280;31212;49.734;8.490;2023-02-08T12:16:41;100848.66;;;7.26;38.42
45467;BME280;31212;49.734;8.490;2023-02-08T12:19:32;100786.63;;;7.22;38.33
45467;BME280;31212;49.734;8.490;2023-02-08T12:22:05;100780.72;;;6.92;38.51
45467;BME280;31212;49.734;8.490;2023-02-08T12:24:39;100778.13;;;6.90;38.67
45467;BME280;31212;49.734;8.490;2023-02-08T12:27:21;100760.31;;;6.64;38.43
45467;BME280;31212;49.734;8.490;2023-02-08T12:29:55;100781.06;;;6.70;38.48
45467;BME280;31212;49.734;8.490;2023-02-08T12:32:37;100773.88;;;6.59;39.20
45467;BME280;31212;49.734;8.490;2023-02-08T12:35:21;100734.69;;;5.75;39.88
45467;BME280;31212;49.734;8.490;2023-02-08T12:37:54;100783.13;;;5.86;40.26
45467;BME280;31212;49.734;8.490;2023-02-08T12:40:46;100836.09;;;6.36;40.40
45467;BME280;31212;49.734;8.490;2023-02-08T12:43:37;100835.47;;;6.46;39.48
45467;BME280;31212;49.734;8.490;2023-02-08T12:46:26;100843.91;;;6.39;39.74
45467;BME280;31212;49.734;8.490;2023-02-08T12:49:09;100865.47;;;6.41;40.61
45467;BME280;31212;49.734;8.490;2023-02-08T12:51:47;100825.06;;;6.75;39.74
45467;BME280;31212;49.734;8.490;2023-02-08T12:54:23;100840.59;;;6.77;39.55
45467;BME280;31212;49.734;8.490;2023-02-08T12:56:55;100787.09;;;6.36;39.52
45467;BME280;31212;49.734;8.490;2023-02-08T12:59:27;100810.44;;;6.42;40.00
45467;BME280;31212;49.734;8.490;2023-02-08T13:01:56;100842.09;;;6.68;40.53
45467;BME280;31212;49.734;8.490;2023-02-08T13:04:31;100810.50;;;6.12;40.48
45467;BME280;31212;49.734;8.490;2023-02-08T13:07:00;100867.78;;;6.32;40.34
45467;BME280;31212;49.734;8.490;2023-02-08T13:09:37;100812.19;;;5.81;41.20
45467;BME280;31212;49.734;8.490;2023-02-08T13:12:12;100845.38;;;5.43;41.53
45467;BME280;31212;49.734;8.490;2023-02-08T13:14:44;100841.25;;;5.20;42.36
45467;BME280;31212;49.734;8.490;2023-02-08T13:17:15;100870.19;;;5.13;42.35